Time;durP1;ratioP1;P1;durP2;ratioP2;P2;SDS_P1;SDS_P2;PMS_P1;PMS_P2;Temp;Humidity;BMP_temperature;BMP_pressure;BME280_temperature;BME280_humidity;BME280_pressure;Samples;Min_cycle;Max_cycle;Signal;HPM_P1;HPM_P2
2023/07/17 00:00:52;;;;;;;5.63;2.70;;;;;;;;;;5028152;28;20029;-71
2023/07/17 00:03:37;;;;;;;5.97;2.95;;;;;;;;;;5029306;28;20712;-69
2023/07/17 00:06:23;;;;;;;9.07;3.17;;;;;;;;;;5016310;28;20112;-70
2023/07/17 00:09:08;;;;;;;6.55;2.65;;;;;;;;;;5027743;28;20140;-69
2023/07/17 00:11:53;;;;;;;5.38;2.60;;;;;;;;;;5017623;28;20113;-74
2023/07/17 00:14:38;;;;;;;7.05;2.60;;;;;;;;;;5024253;28;20050;-70
2023/07/17 00:17:24;;;;;;;7.28;3.15;;;;;;;;;;5027299;28;20032;-70
2023/07/17 00:20:12;;;;;;;7.95;3.78;;;;;;;;;;5028704;28;20123;-72
2023/07/17 00:22:57;;;;;;;4.85;3.20;;;;;;;;;;5014817;28;20049;-71
2023/07/17 00:25:42;;;;;;;5.63;3.08;;;;;;;;;;5027085;28;20029;-72
2023/07/17 00:28:28;;;;;;;6.00;2.85;;;;;;;;;;5028365;28;20476;-68
2023/07/17 00:31:13;;;;;;;4.68;2.70;;;;;;;;;;5028797;28;20146;-68
2023/07/17 00:33:58;;;;;;;4.57;2.95;;;;;;;;;;5027070;28;20079;-68
2023/07/17 00:36:43;;;;;;;5.25;3.33;;;;;;;;;;5023885;28;20028;-67
2023/07/17 00:39:29;;;;;;;5.13;2.63;;;;;;;;;;5019482;28;20045;-66
2023/07/17 00:42:14;;;;;;;4.72;2.72;;;;;;;;;;5026862;28;20025;-68
2023/07/17 00:45:00;;;;;;;7.65;3.40;;;;;;;;;;5022980;28;20048;-73
2023/07/17 00:47:45;;;;;;;6.45;3.10;;;;;;;;;;5025983;28;20031;-70
2023/07/17 00:50:30;;;;;;;6.57;2.92;;;;;;;;;;5022367;28;20492;-71
2023/07/17 00:53:16;;;;;;;4.68;2.47;;;;;;;;;;5028489;28;20041;-72
2023/07/17 00:56:01;;;;;;;7.80;2.78;;;;;;;;;;5024819;28;20065;-74
2023/07/17 00:58:47;;;;;;;9.90;3.05;;;;;;;;;;5028887;28;20116;-72
2023/07/17 01:01:33;;;;;;;11.05;3.00;;;;;;;;;;5027250;28;20057;-72
2023/07/17 01:04:18;;;;;;;6.00;2.88;;;;;;;;;;5024644;28;20037;-68
2023/07/17 01:07:03;;;;;;;5.85;2.60;;;;;;;;;;5023749;28;20022;-76
2023/07/17 01:09:48;;;;;;;5.63;2.58;;;;;;;;;;5012416;28;20111;-77
2023/07/17 01:12:34;;;;;;;5.90;2.70;;;;;;;;;;5009331;28;20030;-77
2023/07/17 01:15:20;;;;;;;5.88;2.58;;;;;;;;;;5014551;28;20037;-77
2023/07/17 01:18:05;;;;;;;7.57;2.88;;;;;;;;;;5024454;28;20097;-77
2023/07/17 01:20:50;;;;;;;6.22;2.60;;;;;;;;;;5019768;28;20115;-73
2023/07/17 01:23:35;;;;;;;4.30;2.45;;;;;;;;;;5025136;28;20041;-70
2023/07/17 01:26:21;;;;;;;6.80;2.58;;;;;;;;;;5022082;28;20037;-69
2023/07/17 01:29:06;;;;;;;4.45;2.72;;;;;;;;;;5026980;28;20464;-70
2023/07/17 01:31:51;;;;;;;8.48;3.33;;;;;;;;;;5027849;28;20594;-69
2023/07/17 01:34:37;;;;;;;9.48;4.95;;;;;;;;;;5025616;28;20064;-70
2023/07/17 01:37:22;;;;;;;4.43;2.63;;;;;;;;;;5021359;28;20438;-69
2023/07/17 01:40:08;;;;;;;3.90;2.47;;;;;;;;;;5027791;28;20036;-73
2023/07/17 01:42:53;;;;;;;4.85;2.50;;;;;;;;;;5022327;28;20140;-66
2023/07/17 01:45:38;;;;;;;4.95;2.50;;;;;;;;;;5026209;28;20013;-67
2023/07/17 01:48:23;;;;;;;7.65;2.50;;;;;;;;;;5021985;28;20033;-65
2023/07/17 01:51:09;;;;;;;5.55;2.90;;;;;;;;;;5025274;28;20614;-67
2023/07/17 01:53:54;;;;;;;8.35;2.70;;;;;;;;;;5023115;28;20108;-68
2023/07/17 01:56:39;;;;;;;8.02;2.75;;;;;;;;;;5012928;28;20053;-68
2023/07/17 01:59:24;;;;;;;5.68;2.83;;;;;;;;;;5026440;28;20029;-73
2023/07/17 02:02:10;;;;;;;5.07;2.75;;;;;;;;;;5023092;28;20091;-72
2023/07/17 02:04:55;;;;;;;6.35;2.50;;;;;;;;;;5016968;28;20115;-71
2023/07/17 02:07:40;;;;;;;5.72;2.50;;;;;;;;;;5028493;28;20152;-71
2023/07/17 02:10:25;;;;;;;3.80;2.30;;;;;;;;;;5015637;28;20087;-70
2023/07/17 02:13:10;;;;;;;5.50;2.75;;;;;;;;;;5014962;28;20539;-72
2023/07/17 02:15:56;;;;;;;4.10;2.40;;;;;;;;;;5022708;28;20373;-67
2023/07/17 02:18:41;;;;;;;8.23;2.65;;;;;;;;;;5021730;28;20034;-72
2023/07/17 02:21:27;;;;;;;8.68;2.70;;;;;;;;;;5026064;28;20484;-72
2023/07/17 02:24:12;;;;;;;3.83;2.25;;;;;;;;;;5025561;28;20046;-71
2023/07/17 02:26:58;;;;;;;5.45;3.00;;;;;;;;;;5033067;28;20025;-72
2023/07/17 02:29:44;;;;;;;7.10;2.67;;;;;;;;;;5031714;28;20583;-72
2023/07/17 02:32:29;;;;;;;4.55;2.28;;;;;;;;;;5026567;28;20021;-71
2023/07/17 02:35:14;;;;;;;4.30;2.42;;;;;;;;;;5023054;28;20029;-73
2023/07/17 02:37:59;;;;;;;6.78;2.97;;;;;;;;;;5030563;28;20033;-74
2023/07/17 02:40:45;;;;;;;6.47;2.63;;;;;;;;;;5015949;28;20034;-73
2023/07/17 02:43:30;;;;;;;8.18;3.15;;;;;;;;;;5011955;28;20389;-75
2023/07/17 02:46:15;;;;;;;4.43;2.70;;;;;;;;;;5024043;28;20048;-74
2023/07/17 02:49:00;;;;;;;6.60;2.22;;;;;;;;;;5030537;28;20392;-74
2023/07/17 02:51:46;;;;;;;8.30;3.53;;;;;;;;;;5017548;28;20038;-73
2023/07/17 02:54:31;;;;;;;5.47;2.65;;;;;;;;;;5027891;28;20036;-73
2023/07/17 02:57:16;;;;;;;4.80;2.28;;;;;;;;;;5030540;28;20088;-68
2023/07/17 03:00:09;;;;;;;6.15;2.92;;;;;;;;;;5030507;28;20134;-71
2023/07/17 03:02:54;;;;;;;8.98;3.08;;;;;;;;;;5016971;28;20037;-70
2023/07/17 03:05:40;;;;;;;7.32;2.55;;;;;;;;;;5029943;28;20037;-70
2023/07/17 03:08:25;;;;;;;4.90;2.30;;;;;;;;;;5029804;28;20025;-71
2023/07/17 03:11:10;;;;;;;4.07;2.30;;;;;;;;;;5030217;28;20412;-67
2023/07/17 03:13:55;;;;;;;5.68;3.47;;;;;;;;;;5025823;28;20582;-67
2023/07/17 03:16:41;;;;;;;7.28;3.25;;;;;;;;;;5011937;28;20026;-68
2023/07/17 03:19:26;;;;;;;6.43;2.80;;;;;;;;;;5024165;28;20199;-69
2023/07/17 03:22:11;;;;;;;6.72;2.80;;;;;;;;;;5000660;28;20049;-68
2023/07/17 03:24:56;;;;;;;6.50;2.60;;;;;;;;;;5014368;28;20508;-66
2023/07/17 03:27:41;;;;;;;7.35;2.88;;;;;;;;;;5028213;28;20030;-66
2023/07/17 03:30:27;;;;;;;6.03;2.75;;;;;;;;;;5026659;28;20030;-70
2023/07/17 03:33:12;;;;;;;8.63;2.60;;;;;;;;;;5020897;28;20038;-71
2023/07/17 03:35:57;;;;;;;8.95;2.58;;;;;;;;;;5028020;28;20037;-72
2023/07/17 03:38:42;;;;;;;5.50;2.47;;;;;;;;;;5027621;28;20430;-73
2023/07/17 03:41:28;;;;;;;4.47;2.33;;;;;;;;;;5020777;28;20496;-71
2023/07/17 03:44:13;;;;;;;8.82;3.08;;;;;;;;;;5015081;28;20033;-72
2023/07/17 03:46:58;;;;;;;9.32;3.00;;;;;;;;;;5022817;28;20546;-71
2023/07/17 03:49:43;;;;;;;5.47;2.50;;;;;;;;;;5021554;28;20017;-77
2023/07/17 03:52:28;;;;;;;6.68;2.70;;;;;;;;;;5028042;28;20025;-76
2023/07/17 03:55:14;;;;;;;8.05;3.25;;;;;;;;;;5023017;28;20057;-75
2023/07/17 03:57:59;;;;;;;6.45;2.83;;;;;;;;;;5022774;28;20800;-75
2023/07/17 04:00:44;;;;;;;9.63;2.72;;;;;;;;;;5024950;28;20089;-75
2023/07/17 04:03:29;;;;;;;6.47;2.97;;;;;;;;;;5017270;28;20397;-74
2023/07/17 04:06:15;;;;;;;6.32;2.85;;;;;;;;;;5025286;28;20040;-70
2023/07/17 04:09:00;;;;;;;8.10;2.65;;;;;;;;;;5028082;28;20029;-67
2023/07/17 04:11:46;;;;;;;5.35;2.53;;;;;;;;;;5021499;28;20040;-66
2023/07/17 04:14:34;;;;;;;5.32;3.28;;;;;;;;;;5025506;28;20096;-68
2023/07/17 04:17:19;;;;;;;6.57;2.80;;;;;;;;;;5020339;28;20049;-68
2023/07/17 04:20:09;;;;;;;6.13;2.90;;;;;;;;;;5028762;28;20029;-67
2023/07/17 04:22:54;;;;;;;6.25;3.03;;;;;;;;;;4989227;28;1104531;-67
2023/07/17 04:25:39;;;;;;;7.30;2.95;;;;;;;;;;5016787;28;20075;-73
2023/07/17 04:28:24;;;;;;;11.88;3.20;;;;;;;;;;5024403;28;20528;-70
2023/07/17 04:31:09;;;;;;;5.55;2.95;;;;;;;;;;5014782;28;20132;-71
2023/07/17 04:33:55;;;;;;;6.15;2.90;;;;;;;;;;5027235;28;20037;-70
2023/07/17 04:36:40;;;;;;;7.10;3.65;;;;;;;;;;5022063;28;20473;-70
2023/07/17 04:39:25;;;;;;;5.63;2.63;;;;;;;;;;5022559;28;20073;-68
2023/07/17 04:42:11;;;;;;;7.22;2.60;;;;;;;;;;5026367;28;20457;-69
2023/07/17 04:44:56;;;;;;;5.47;3.00;;;;;;;;;;5022313;28;20456;-71
2023/07/17 04:47:41;;;;;;;7.03;3.10;;;;;;;;;;5015742;28;20036;-75
2023/07/17 04:50:26;;;;;;;4.10;2.58;;;;;;;;;;5010187;28;20025;-72
2023/07/17 04:53:11;;;;;;;7.35;3.03;;;;;;;;;;5028507;28;20074;-75
2023/07/17 04:55:57;;;;;;;5.50;3.00;;;;;;;;;;5041733;28;20036;-73
2023/07/17 04:58:42;;;;;;;7.60;3.10;;;;;;;;;;5022489;28;20032;-75
2023/07/17 05:01:27;;;;;;;5.40;2.70;;;;;;;;;;5018889;28;20464;-69
2023/07/17 05:04:12;;;;;;;4.00;2.38;;;;;;;;;;5021200;28;20096;-67
2023/07/17 05:06:58;;;;;;;6.55;3.03;;;;;;;;;;5023971;28;20040;-68
2023/07/17 05:09:43;;;;;;;5.93;3.08;;;;;;;;;;5022630;28;20520;-66
2023/07/17 05:12:28;;;;;;;6.47;2.58;;;;;;;;;;5023177;28;20116;-66
2023/07/17 05:15:13;;;;;;;9.25;3.13;;;;;;;;;;5027237;28;20064;-66
2023/07/17 05:17:59;;;;;;;8.82;3.33;;;;;;;;;;5026308;28;20025;-68
2023/07/17 05:20:48;;;;;;;6.18;2.35;;;;;;;;;;5021405;28;20044;-69
2023/07/17 05:23:33;;;;;;;9.32;2.80;;;;;;;;;;5026277;28;20091;-67
2023/07/17 05:26:18;;;;;;;6.97;2.60;;;;;;;;;;5019798;28;20089;-66
2023/07/17 05:29:04;;;;;;;4.80;2.70;;;;;;;;;;5015273;28;20416;-68
2023/07/17 05:31:49;;;;;;;6.82;3.75;;;;;;;;;;5027277;28;20507;-67
2023/07/17 05:34:35;;;;;;;6.95;2.80;;;;;;;;;;5023049;28;20120;-67
2023/07/17 05:37:20;;;;;;;5.35;2.83;;;;;;;;;;5039446;28;20022;-68
2023/07/17 05:40:06;;;;;;;7.45;3.00;;;;;;;;;;5000993;28;20118;-68
2023/07/17 05:42:51;;;;;;;6.97;2.85;;;;;;;;;;5060534;23;20049;-71
2023/07/17 05:45:36;;;;;;;9.07;3.40;;;;;;;;;;5031042;28;20036;-68
2023/07/17 05:48:22;;;;;;;7.70;3.25;;;;;;;;;;5041069;28;20029;-68
2023/07/17 05:51:08;;;;;;;5.85;2.97;;;;;;;;;;5045380;28;20500;-69
2023/07/17 05:53:53;;;;;;;7.65;3.00;;;;;;;;;;5039953;28;20037;-71
2023/07/17 05:56:40;;;;;;;4.40;2.90;;;;;;;;;;5041503;28;20025;-74
2023/07/17 05:59:25;;;;;;;10.98;3.55;;;;;;;;;;5025612;28;20054;-70
2023/07/17 06:02:10;;;;;;;9.90;3.33;;;;;;;;;;5030747;28;20727;-70
2023/07/17 06:04:56;;;;;;;6.47;2.85;;;;;;;;;;5031489;28;20206;-69
2023/07/17 06:07:41;;;;;;;5.95;3.15;;;;;;;;;;5031850;28;20112;-67
2023/07/17 06:10:26;;;;;;;10.07;2.80;;;;;;;;;;5039252;28;20033;-67
2023/07/17 06:13:12;;;;;;;9.63;3.20;;;;;;;;;;5028766;28;20036;-68
2023/07/17 06:15:58;;;;;;;6.38;2.60;;;;;;;;;;5028767;28;20127;-69
2023/07/17 06:18:43;;;;;;;5.82;2.33;;;;;;;;;;5053972;28;20133;-83
2023/07/17 06:21:28;;;;;;;7.95;3.70;;;;;;;;;;5032330;28;20380;-82
2023/07/17 06:24:14;;;;;;;6.55;2.78;;;;;;;;;;5021221;28;20026;-83
2023/07/17 06:26:59;;;;;;;5.18;2.85;;;;;;;;;;5030455;28;20034;-85
2023/07/17 06:29:45;;;;;;;7.05;3.08;;;;;;;;;;5031509;28;20115;-82
2023/07/17 06:32:30;;;;;;;7.28;2.70;;;;;;;;;;5025849;28;20100;-83
2023/07/17 06:35:15;;;;;;;4.93;2.63;;;;;;;;;;5031324;28;20167;-82
2023/07/17 06:38:00;;;;;;;6.20;2.53;;;;;;;;;;5030584;28;20057;-86
2023/07/17 06:40:51;;;;;;;6.10;2.45;;;;;;;;;;5017653;28;20148;-83
2023/07/17 06:43:36;;;;;;;8.52;2.67;;;;;;;;;;5030766;28;20041;-81
2023/07/17 06:46:21;;;;;;;4.80;2.40;;;;;;;;;;5031008;28;20021;-82
2023/07/17 06:49:07;;;;;;;5.72;2.45;;;;;;;;;;5031467;28;20025;-81
2023/07/17 06:51:52;;;;;;;7.10;2.38;;;;;;;;;;5031397;28;20490;-69
2023/07/17 06:54:37;;;;;;;4.78;2.63;;;;;;;;;;5029448;28;20018;-72
2023/07/17 06:57:22;;;;;;;4.75;2.60;;;;;;;;;;5029854;28;20029;-70
2023/07/17 07:00:08;;;;;;;12.18;3.03;;;;;;;;;;5030545;28;20404;-69
2023/07/17 07:02:54;;;;;;;6.13;2.72;;;;;;;;;;5030129;28;20555;-67
2023/07/17 07:05:39;;;;;;;6.45;2.60;;;;;;;;;;5016976;28;20025;-67
2023/07/17 07:08:29;;;;;;;5.82;2.70;;;;;;;;;;5029789;28;20026;-68
2023/07/17 07:11:14;;;;;;;6.57;2.60;;;;;;;;;;5029982;28;20041;-71
2023/07/17 07:13:59;;;;;;;7.35;3.60;;;;;;;;;;5030212;28;20095;-69
2023/07/17 07:16:45;;;;;;;7.47;3.03;;;;;;;;;;5016085;28;20048;-69
2023/07/17 07:19:30;;;;;;;7.55;3.17;;;;;;;;;;5029915;28;20484;-69
2023/07/17 07:22:15;;;;;;;9.85;3.90;;;;;;;;;;5019984;28;20487;-69
2023/07/17 07:25:00;;;;;;;10.70;3.83;;;;;;;;;;5026708;28;20025;-69
2023/07/17 07:27:45;;;;;;;7.20;3.42;;;;;;;;;;5030404;28;20029;-68
2023/07/17 07:30:31;;;;;;;8.55;3.38;;;;;;;;;;5030381;28;20104;-68
2023/07/17 07:33:16;;;;;;;7.43;2.95;;;;;;;;;;5030081;28;20136;-71
2023/07/17 07:36:01;;;;;;;8.88;3.80;;;;;;;;;;5030292;28;20017;-73
2023/07/17 07:38:47;;;;;;;7.72;3.08;;;;;;;;;;5027733;28;20034;-72
2023/07/17 07:41:33;;;;;;;7.82;4.05;;;;;;;;;;5029990;28;20028;-72
2023/07/17 07:44:18;;;;;;;7.78;3.80;;;;;;;;;;5017456;28;20388;-71
2023/07/17 07:47:05;;;;;;;6.97;3.40;;;;;;;;;;5029919;28;20025;-74
2023/07/17 07:49:50;;;;;;;6.72;3.75;;;;;;;;;;5029638;28;20025;-71
2023/07/17 07:52:35;;;;;;;9.48;4.30;;;;;;;;;;5023587;28;20472;-69
2023/07/17 07:55:21;;;;;;;6.82;3.45;;;;;;;;;;5029949;28;20365;-71
2023/07/17 07:58:06;;;;;;;5.30;3.05;;;;;;;;;;5029459;28;20465;-68
2023/07/17 08:00:52;;;;;;;9.73;4.40;;;;;;;;;;5015986;28;20076;-70
2023/07/17 08:03:39;;;;;;;8.85;3.33;;;;;;;;;;5029339;28;20063;-68
2023/07/17 08:06:24;;;;;;;7.55;4.00;;;;;;;;;;5029149;28;20071;-69
2023/07/17 08:09:09;;;;;;;6.60;3.65;;;;;;;;;;5025014;28;20053;-73
2023/07/17 08:11:54;;;;;;;7.63;3.83;;;;;;;;;;5028734;28;20361;-72
2023/07/17 08:14:40;;;;;;;12.27;4.90;;;;;;;;;;5029753;28;20009;-71
2023/07/17 08:17:25;;;;;;;10.32;3.83;;;;;;;;;;5029061;28;20030;-73
2023/07/17 08:20:10;;;;;;;6.40;3.67;;;;;;;;;;5016818;28;20026;-72
2023/07/17 08:22:56;;;;;;;8.48;4.15;;;;;;;;;;5021137;28;20036;-71
2023/07/17 08:25:41;;;;;;;7.10;3.85;;;;;;;;;;5028883;28;20067;-71
2023/07/17 08:28:26;;;;;;;13.43;4.70;;;;;;;;;;5029877;28;20358;-76
2023/07/17 08:31:11;;;;;;;8.55;3.97;;;;;;;;;;5030042;28;20108;-79
2023/07/17 08:33:57;;;;;;;9.82;3.75;;;;;;;;;;5029819;28;20036;-77
2023/07/17 08:36:42;;;;;;;9.20;4.20;;;;;;;;;;5016498;28;20017;-77
2023/07/17 08:39:27;;;;;;;7.43;3.58;;;;;;;;;;5030520;28;20095;-76
2023/07/17 08:42:12;;;;;;;6.53;3.53;;;;;;;;;;5029257;28;20041;-69
2023/07/17 08:44:58;;;;;;;9.20;3.67;;;;;;;;;;5028885;28;20072;-69
2023/07/17 08:47:43;;;;;;;11.50;4.40;;;;;;;;;;5021304;28;20013;-77
2023/07/17 08:50:29;;;;;;;8.73;3.97;;;;;;;;;;5032305;28;20032;-77
2023/07/17 08:53:14;;;;;;;7.13;3.60;;;;;;;;;;5017725;28;20021;-77
2023/07/17 08:56:00;;;;;;;6.45;3.72;;;;;;;;;;5031617;28;20029;-77
2023/07/17 08:58:45;;;;;;;6.60;4.10;;;;;;;;;;5032097;28;20029;-76
2023/07/17 09:01:31;;;;;;;6.47;4.03;;;;;;;;;;5018678;28;20151;-71
2023/07/17 09:04:16;;;;;;;7.55;3.58;;;;;;;;;;5026084;28;20056;-70
2023/07/17 09:07:02;;;;;;;5.88;3.70;;;;;;;;;;5027919;28;20025;-69
2023/07/17 09:10:07;;;;;;;6.93;3.72;;;;;;;;;;5025618;28;20013;-68
2023/07/17 09:12:56;;;;;;;8.25;4.53;;;;;;;;;;5027809;28;20065;-70
2023/07/17 09:15:41;;;;;;;10.55;4.20;;;;;;;;;;5028079;28;20017;-69
2023/07/17 09:18:28;;;;;;;8.27;4.28;;;;;;;;;;5020896;28;20065;-69
2023/07/17 09:21:14;;;;;;;7.50;3.72;;;;;;;;;;5027299;28;20033;-79
2023/07/17 09:24:00;;;;;;;7.28;3.78;;;;;;;;;;5010983;28;20076;-69
2023/07/17 09:26:54;;;;;;;6.85;3.72;;;;;;;;;;5028209;28;20021;-68
2023/07/17 09:29:40;;;;;;;8.75;3.60;;;;;;;;;;5027949;28;20473;-68
2023/07/17 09:32:26;;;;;;;8.20;4.10;;;;;;;;;;5027798;28;20099;-68
2023/07/17 09:35:11;;;;;;;7.32;3.95;;;;;;;;;;5028209;28;20099;-69
2023/07/17 09:37:57;;;;;;;7.22;4.15;;;;;;;;;;5027491;28;20069;-69
2023/07/17 09:40:42;;;;;;;6.65;3.85;;;;;;;;;;5027850;28;20075;-66
2023/07/17 09:43:31;;;;;;;7.22;3.85;;;;;;;;;;5027314;28;20057;-67
2023/07/17 09:46:16;;;;;;;6.93;3.65;;;;;;;;;;5028209;28;20083;-66
2023/07/17 09:49:06;;;;;;;8.13;4.10;;;;;;;;;;5027712;28;20025;-66
2023/07/17 09:51:52;;;;;;;6.28;3.47;;;;;;;;;;5027849;28;20029;-69
2023/07/17 09:54:38;;;;;;;12.38;4.38;;;;;;;;;;5027615;28;20029;-68
2023/07/17 09:57:30;;;;;;;7.50;4.10;;;;;;;;;;5027367;28;20022;-70
2023/07/17 10:00:19;;;;;;;5.45;3.50;;;;;;;;;;5027702;28;20095;-69
2023/07/17 10:03:05;;;;;;;7.73;4.27;;;;;;;;;;5027342;28;20056;-68
2023/07/17 10:05:51;;;;;;;7.50;4.65;;;;;;;;;;5027629;28;20029;-67
2023/07/17 10:08:37;;;;;;;9.93;4.10;;;;;;;;;;5027213;28;20025;-70
2023/07/17 10:11:22;;;;;;;8.55;4.32;;;;;;;;;;5027815;28;20092;-71
2023/07/17 10:14:08;;;;;;;7.18;4.10;;;;;;;;;;5027701;28;20230;-76
2023/07/17 10:16:53;;;;;;;7.47;3.67;;;;;;;;;;5008158;28;20026;-67
2023/07/17 10:19:48;;;;;;;8.77;3.83;;;;;;;;;;5025712;28;20428;-69
2023/07/17 10:22:43;;;;;;;7.72;3.92;;;;;;;;;;5026237;28;20091;-71
2023/07/17 10:25:28;;;;;;;7.82;4.15;;;;;;;;;;5015011;28;20105;-68
2023/07/17 10:28:14;;;;;;;10.52;4.10;;;;;;;;;;5028533;28;20079;-67
2023/07/17 10:31:10;;;;;;;7.15;4.47;;;;;;;;;;5027815;28;20476;-70
2023/07/17 10:34:03;;;;;;;5.95;3.40;;;;;;;;;;5026846;28;20492;-66
2023/07/17 10:36:49;;;;;;;7.45;4.45;;;;;;;;;;5027265;28;20025;-69
2023/07/17 10:39:35;;;;;;;8.45;4.30;;;;;;;;;;5026943;28;20034;-69
2023/07/17 10:42:24;;;;;;;10.13;4.32;;;;;;;;;;5027176;28;20052;-69
2023/07/17 10:45:10;;;;;;;6.18;3.60;;;;;;;;;;5031367;28;20034;-69
2023/07/17 10:47:57;;;;;;;7.05;4.38;;;;;;;;;;5030421;28;20504;-68
2023/07/17 10:50:47;;;;;;;7.75;4.47;;;;;;;;;;5030734;28;20018;-67
2023/07/17 10:53:32;;;;;;;8.18;4.20;;;;;;;;;;5010464;28;20051;-68
2023/07/17 10:56:18;;;;;;;8.10;4.13;;;;;;;;;;4997654;28;20505;-79
2023/07/17 10:59:04;;;;;;;7.72;3.80;;;;;;;;;;5027161;28;20033;-80
2023/07/17 11:01:49;;;;;;;8.63;4.05;;;;;;;;;;5030918;28;20029;-81
2023/07/17 11:04:34;;;;;;;7.63;3.72;;;;;;;;;;5030442;28;20167;-83
2023/07/17 11:07:19;;;;;;;6.63;3.92;;;;;;;;;;5016581;28;20106;-80
2023/07/17 11:10:10;;;;;;;7.93;4.47;;;;;;;;;;5029918;28;20508;-73
2023/07/17 11:13:00;;;;;;;7.55;4.65;;;;;;;;;;5012599;28;20036;-74
2023/07/17 11:15:45;;;;;;;8.40;3.55;;;;;;;;;;5030424;28;20029;-73
2023/07/17 11:18:30;;;;;;;7.72;4.03;;;;;;;;;;5029987;28;20942;-74
2023/07/17 11:21:16;;;;;;;6.35;4.15;;;;;;;;;;5030320;28;20083;-74
2023/07/17 11:24:06;;;;;;;8.23;3.67;;;;;;;;;;5025894;28;20026;-74
2023/07/17 11:26:53;;;;;;;7.82;4.07;;;;;;;;;;5014092;28;20081;-74
2023/07/17 11:29:39;;;;;;;8.05;4.78;;;;;;;;;;5009926;28;20517;-71
2023/07/17 11:32:27;;;;;;;5.20;3.50;;;;;;;;;;5030346;28;20029;-72
2023/07/17 11:35:12;;;;;;;8.30;4.30;;;;;;;;;;5029699;28;20105;-73
2023/07/17 11:38:02;;;;;;;5.78;3.83;;;;;;;;;;5029637;28;20396;-72
2023/07/17 11:40:53;;;;;;;6.00;3.22;;;;;;;;;;5016553;28;20128;-73
2023/07/17 11:43:38;;;;;;;6.93;3.92;;;;;;;;;;5027893;28;20053;-72
2023/07/17 11:46:24;;;;;;;6.75;3.65;;;;;;;;;;5016461;28;20018;-68
2023/07/17 11:49:10;;;;;;;9.73;4.35;;;;;;;;;;5014381;28;20022;-67
2023/07/17 11:51:56;;;;;;;5.55;3.63;;;;;;;;;;5029881;28;20037;-67
2023/07/17 11:54:41;;;;;;;6.75;3.75;;;;;;;;;;5027737;28;20025;-67
2023/07/17 11:57:28;;;;;;;7.93;3.88;;;;;;;;;;5028618;28;20017;-67
2023/07/17 12:00:13;;;;;;;10.00;4.00;;;;;;;;;;5026581;28;20041;-68
2023/07/17 12:02:58;;;;;;;8.40;4.15;;;;;;;;;;5027189;28;20632;-66
2023/07/17 12:05:44;;;;;;;6.47;4.03;;;;;;;;;;5028999;28;20095;-68
2023/07/17 12:08:29;;;;;;;6.28;4.18;;;;;;;;;;5029360;28;20030;-75
2023/07/17 12:11:14;;;;;;;6.28;3.53;;;;;;;;;;5029598;28;20052;-75
2023/07/17 12:13:59;;;;;;;7.43;4.05;;;;;;;;;;5029280;28;20171;-75
2023/07/17 12:16:45;;;;;;;8.63;4.22;;;;;;;;;;5017537;28;20037;-75
2023/07/17 12:19:30;;;;;;;6.82;4.05;;;;;;;;;;5028632;28;20045;-76
2023/07/17 12:22:16;;;;;;;7.32;3.80;;;;;;;;;;5016911;28;20021;-77
2023/07/17 12:25:01;;;;;;;8.13;4.10;;;;;;;;;;5035258;28;20042;-68
2023/07/17 12:27:47;;;;;;;6.00;4.05;;;;;;;;;;5009493;28;20060;-68
2023/07/17 12:30:32;;;;;;;6.88;4.25;;;;;;;;;;5028408;28;20178;-67
2023/07/17 12:33:17;;;;;;;7.18;4.05;;;;;;;;;;5028185;28;20025;-66
2023/07/17 12:36:03;;;;;;;10.02;5.15;;;;;;;;;;5028923;28;20017;-67
2023/07/17 12:38:48;;;;;;;5.47;3.60;;;;;;;;;;5027929;28;20041;-66
2023/07/17 12:41:33;;;;;;;8.40;4.30;;;;;;;;;;5028058;28;20563;-69
2023/07/17 12:44:18;;;;;;;6.45;4.38;;;;;;;;;;5028263;28;20095;-69
2023/07/17 12:47:04;;;;;;;8.40;3.80;;;;;;;;;;5028635;28;20063;-71
2023/07/17 12:49:49;;;;;;;8.35;3.97;;;;;;;;;;5008657;28;20358;-69
2023/07/17 12:52:35;;;;;;;7.20;4.10;;;;;;;;;;5027676;28;20025;-70
2023/07/17 12:55:20;;;;;;;5.88;3.45;;;;;;;;;;5008801;28;20022;-69
2023/07/17 12:58:05;;;;;;;7.72;3.72;;;;;;;;;;5018437;28;20025;-70
2023/07/17 13:00:51;;;;;;;5.90;3.83;;;;;;;;;;5028134;28;20041;-70
2023/07/17 13:03:36;;;;;;;7.47;4.13;;;;;;;;;;5027927;28;20497;-69
2023/07/17 13:06:21;;;;;;;8.52;3.63;;;;;;;;;;5014687;28;20495;-69
2023/07/17 13:09:07;;;;;;;6.75;3.65;;;;;;;;;;5014103;28;20059;-68
2023/07/17 13:11:53;;;;;;;8.77;4.20;;;;;;;;;;5008898;28;20080;-69
2023/07/17 13:14:38;;;;;;;6.68;3.70;;;;;;;;;;5026742;28;20025;-68
2023/07/17 13:17:24;;;;;;;6.85;3.67;;;;;;;;;;5028603;28;20022;-68
2023/07/17 13:20:09;;;;;;;5.38;3.10;;;;;;;;;;5013433;28;20072;-69
2023/07/17 13:22:54;;;;;;;6.53;3.95;;;;;;;;;;5022748;28;20633;-71
2023/07/17 13:25:39;;;;;;;5.20;3.30;;;;;;;;;;5025372;28;20044;-72
2023/07/17 13:28:25;;;;;;;5.15;3.60;;;;;;;;;;5028334;28;20031;-71
2023/07/17 13:31:10;;;;;;;7.72;4.20;;;;;;;;;;5019179;28;20036;-73
2023/07/17 13:33:56;;;;;;;7.07;3.85;;;;;;;;;;5027700;28;20075;-72
2023/07/17 13:36:41;;;;;;;6.97;3.45;;;;;;;;;;5027905;28;20116;-70
2023/07/17 13:39:26;;;;;;;5.82;3.30;;;;;;;;;;5027378;28;20041;-68
2023/07/17 13:42:12;;;;;;;5.88;3.38;;;;;;;;;;5027694;28;20218;-72
2023/07/17 13:44:59;;;;;;;6.03;3.88;;;;;;;;;;5027739;28;20068;-71
2023/07/17 13:47:44;;;;;;;9.65;3.85;;;;;;;;;;5015526;28;20018;-73
2023/07/17 13:50:30;;;;;;;6.25;3.50;;;;;;;;;;5027452;28;20435;-72
2023/07/17 13:53:15;;;;;;;6.60;3.65;;;;;;;;;;5027797;28;20033;-72
2023/07/17 13:56:00;;;;;;;7.03;3.90;;;;;;;;;;5027278;28;20112;-69
2023/07/17 13:58:45;;;;;;;6.32;3.17;;;;;;;;;;5028004;28;20053;-80
2023/07/17 14:01:31;;;;;;;9.13;3.88;;;;;;;;;;5027973;28;20041;-78
2023/07/17 14:04:16;;;;;;;7.55;4.80;;;;;;;;;;5027748;28;20380;-80
2023/07/17 14:07:01;;;;;;;7.97;3.55;;;;;;;;;;5028027;28;20032;-78
2023/07/17 14:09:46;;;;;;;5.82;3.47;;;;;;;;;;5024689;28;20091;-78
2023/07/17 14:12:32;;;;;;;7.53;3.75;;;;;;;;;;5027858;28;20025;-82
2023/07/17 14:15:17;;;;;;;8.93;4.13;;;;;;;;;;5027466;28;20030;-66
2023/07/17 14:18:03;;;;;;;6.18;4.18;;;;;;;;;;5028200;28;20035;-75
2023/07/17 14:20:49;;;;;;;7.38;4.07;;;;;;;;;;5030865;28;20512;-76
2023/07/17 14:23:34;;;;;;;9.60;4.22;;;;;;;;;;5024585;28;20017;-76
2023/07/17 14:26:19;;;;;;;5.47;3.47;;;;;;;;;;5017667;28;20030;-75
2023/07/17 14:29:05;;;;;;;5.82;3.47;;;;;;;;;;5031084;28;20690;-76
2023/07/17 14:31:50;;;;;;;9.52;3.97;;;;;;;;;;5031288;28;20112;-69
2023/07/17 14:34:41;;;;;;;6.78;4.03;;;;;;;;;;5015896;28;20025;-69
2023/07/17 14:37:26;;;;;;;7.80;3.85;;;;;;;;;;5031261;28;20014;-73
2023/07/17 14:40:12;;;;;;;6.22;3.30;;;;;;;;;;5030523;28;20095;-73
2023/07/17 14:42:57;;;;;;;9.93;3.85;;;;;;;;;;5030976;28;20046;-72
2023/07/17 14:45:42;;;;;;;9.80;3.97;;;;;;;;;;5030429;28;20053;-73
2023/07/17 14:48:28;;;;;;;6.82;3.78;;;;;;;;;;5031327;28;20037;-75
2023/07/17 14:51:13;;;;;;;6.65;3.97;;;;;;;;;;5030909;28;20033;-69
2023/07/17 14:53:58;;;;;;;6.00;4.07;;;;;;;;;;5030901;28;20060;-75
2023/07/17 14:56:43;;;;;;;8.50;4.32;;;;;;;;;;5030841;28;20025;-76
2023/07/17 14:59:29;;;;;;;6.75;3.53;;;;;;;;;;5030393;28;20025;-76
2023/07/17 15:02:14;;;;;;;8.85;4.10;;;;;;;;;;5031017;28;20377;-75
2023/07/17 15:04:59;;;;;;;7.70;3.85;;;;;;;;;;5031028;28;20025;-74
2023/07/17 15:07:44;;;;;;;6.43;3.50;;;;;;;;;;5031028;28;20013;-76
2023/07/17 15:10:30;;;;;;;7.80;3.22;;;;;;;;;;5011222;28;20040;-68
2023/07/17 15:13:15;;;;;;;6.43;3.42;;;;;;;;;;5018585;28;20385;-72
2023/07/17 15:16:00;;;;;;;8.73;3.25;;;;;;;;;;5030007;28;20029;-71
2023/07/17 15:18:45;;;;;;;8.25;4.00;;;;;;;;;;5030414;28;20030;-72
2023/07/17 15:21:31;;;;;;;11.68;4.10;;;;;;;;;;5030091;28;20041;-72
2023/07/17 15:24:16;;;;;;;7.32;3.28;;;;;;;;;;5024055;28;20029;-71
2023/07/17 15:27:01;;;;;;;7.43;3.63;;;;;;;;;;5030316;28;20087;-69
2023/07/17 15:29:46;;;;;;;8.55;4.05;;;;;;;;;;5029408;28;20036;-77
2023/07/17 15:32:32;;;;;;;8.65;4.32;;;;;;;;;;5025440;28;20472;-76
2023/07/17 15:35:17;;;;;;;7.35;3.47;;;;;;;;;;5029593;28;20025;-74
2023/07/17 15:38:02;;;;;;;6.45;4.40;;;;;;;;;;5029974;28;20037;-75
2023/07/17 15:40:47;;;;;;;8.02;4.38;;;;;;;;;;5007191;28;20037;-74
2023/07/17 15:43:33;;;;;;;9.60;4.00;;;;;;;;;;5024442;28;20121;-75
2023/07/17 15:46:19;;;;;;;6.45;3.45;;;;;;;;;;5029398;28;20500;-68
2023/07/17 15:49:04;;;;;;;7.20;3.92;;;;;;;;;;5029856;28;20021;-71
2023/07/17 15:51:49;;;;;;;12.40;3.85;;;;;;;;;;5029467;28;20022;-72
2023/07/17 15:54:34;;;;;;;11.57;5.20;;;;;;;;;;5026743;28;20025;-74
2023/07/17 15:57:20;;;;;;;9.02;4.00;;;;;;;;;;5025611;28;20645;-72
2023/07/17 16:00:06;;;;;;;9.60;4.18;;;;;;;;;;5028232;28;20117;-74
2023/07/17 16:02:51;;;;;;;8.52;4.00;;;;;;;;;;5028308;28;20026;-76
2023/07/17 16:05:36;;;;;;;8.52;3.83;;;;;;;;;;5028177;28;20025;-73
2023/07/17 16:08:22;;;;;;;8.13;4.00;;;;;;;;;;5024361;28;20026;-72
2023/07/17 16:11:07;;;;;;;7.50;4.05;;;;;;;;;;5028647;28;20033;-71
2023/07/17 16:13:52;;;;;;;6.65;3.75;;;;;;;;;;5028250;28;20408;-72
2023/07/17 16:16:38;;;;;;;9.23;3.92;;;;;;;;;;5026782;28;20032;-71
2023/07/17 16:19:23;;;;;;;8.80;4.18;;;;;;;;;;5027489;28;20069;-74
2023/07/17 16:22:09;;;;;;;6.93;3.63;;;;;;;;;;5025263;28;20554;-70
2023/07/17 16:24:54;;;;;;;7.28;4.00;;;;;;;;;;5027734;28;20037;-73
2023/07/17 16:27:39;;;;;;;7.22;4.32;;;;;;;;;;5027927;28;20023;-67
2023/07/17 16:30:24;;;;;;;8.80;3.78;;;;;;;;;;5011363;28;20498;-66
2023/07/17 16:33:14;;;;;;;6.20;3.53;;;;;;;;;;5028197;28;20065;-67